Time;durP1;ratioP1;P1;durP2;ratioP2;P2;SDS_P1;SDS_P2;PMS_P1;PMS_P2;Temp;Humidity;BMP_temperature;BMP_pressure;BME280_temperature;BME280_humidity;BME280_pressure;Samples;Min_cycle;Max_cycle;Signal;HPM_P1;HPM_P2
2023/08/08 10:15:16;;;;;;;2.47;1.30;;;23.50;99.90;;;;;;5435336;24;20509;-93
2023/08/08 10:17:42;;;;;;;2.10;1.70;;;23.50;99.90;;;;;;4839653;29;20505;-93
2023/08/08 10:20:12;;;;;;;2.70;2.10;;;23.60;99.90;;;;;;4832041;29;20213;-94
2023/08/08 10:22:45;;;;;;;2.10;1.80;;;23.80;99.90;;;;;;4837692;29;20427;-93
2023/08/08 10:25:28;;;;;;;2.43;1.93;;;23.80;99.90;;;;;;4833565;29;20498;-94
2023/08/08 10:28:13;;;;;;;3.70;1.80;;;24.00;99.90;;;;;;4827284;29;20511;-94
2023/08/08 10:30:53;;;;;;;1.60;1.40;;;24.10;99.90;;;;;;4858399;29;21050;-94
2023/08/08 10:33:23;;;;;;;3.03;1.73;;;24.10;98.90;;;;;;4828816;29;20411;-94
2023/08/08 10:36:03;;;;;;;2.90;1.50;;;24.10;99.30;;;;;;4828069;29;20641;-94
2023/08/08 10:38:43;;;;;;;4.47;2.40;;;24.20;99.70;;;;;;4823880;29;20439;-94
2023/08/08 10:41:20;;;;;;;4.93;2.80;;;24.40;98.50;;;;;;4835341;29;20583;-95
2023/08/08 10:43:55;;;;;;;4.60;1.80;;;24.40;98.80;;;;;;4832564;29;20686;-95
2023/08/08 10:46:29;;;;;;;4.00;1.70;;;24.40;99.40;;;;;;4817238;29;20629;-94
2023/08/08 10:49:02;;;;;;;2.10;1.40;;;24.50;98.40;;;;;;4814383;29;20577;-94
2023/08/08 10:51:46;;;;;;;2.33;2.07;;;24.60;97.50;;;;;;4815915;29;20452;-94
2023/08/08 10:54:30;;;;;;;2.37;2.00;;;24.60;96.40;;;;;;4834008;29;20568;-94
2023/08/08 10:56:57;;;;;;;1.90;1.67;;;24.60;99.00;;;;;;4834815;29;20415;-94
2023/08/08 10:59:39;;;;;;;2.33;1.77;;;24.70;98.50;;;;;;4831716;29;20530;-95
2023/08/08 11:02:05;;;;;;;2.20;1.77;;;24.70;96.90;;;;;;4831366;29;20615;-96
2023/08/08 11:04:32;;;;;;;3.40;1.67;;;24.70;95.50;;;;;;4844454;29;21083;-94
2023/08/08 11:06:58;;;;;;;2.63;1.70;;;24.70;95.60;;;;;;4843760;29;20260;-94
2023/08/08 11:09:26;;;;;;;2.40;1.43;;;24.70;96.70;;;;;;4833323;29;20568;-96
2023/08/08 11:11:52;;;;;;;3.60;1.30;;;24.80;96.20;;;;;;4832336;29;20425;-94
2023/08/08 11:14:22;;;;;;;5.50;1.87;;;24.90;95.90;;;;;;4832865;29;20447;-94
2023/08/08 11:16:49;;;;;;;2.83;1.90;;;24.90;95.00;;;;;;4831525;29;20669;-94
2023/08/08 11:19:16;;;;;;;4.43;2.10;;;25.00;97.10;;;;;;4832710;29;20435;-95
2023/08/08 11:21:44;;;;;;;6.07;2.00;;;25.00;95.00;;;;;;4833213;29;20432;-94
2023/08/08 11:24:12;;;;;;;2.17;1.80;;;25.00;99.20;;;;;;4842132;29;20530;-94
2023/08/08 11:26:40;;;;;;;1.80;1.60;;;24.90;95.80;;;;;;4835087;29;20496;-95
2023/08/08 11:29:07;;;;;;;4.20;1.80;;;24.90;97.40;;;;;;4825516;29;20507;-95
2023/08/08 11:31:34;;;;;;;3.97;1.83;;;25.00;95.90;;;;;;4832354;29;20707;-94
2023/08/08 11:34:07;;;;;;;2.93;1.93;;;25.00;95.20;;;;;;4831897;29;20460;-94
2023/08/08 11:36:34;;;;;;;4.90;1.70;;;25.10;94.50;;;;;;4830094;29;20849;-94
2023/08/08 11:39:09;;;;;;;4.20;1.63;;;25.00;96.80;;;;;;4819560;29;20446;-95
2023/08/08 11:41:36;;;;;;;3.53;2.00;;;25.10;95.10;;;;;;4834361;29;20511;-94
2023/08/08 11:44:04;;;;;;;3.20;1.97;;;25.00;99.10;;;;;;4833929;29;20452;-94
2023/08/08 11:46:30;;;;;;;5.10;2.10;;;25.00;94.90;;;;;;4831465;29;20483;-94
2023/08/08 11:49:06;;;;;;;1.87;1.60;;;25.00;95.50;;;;;;4836710;29;20463;-93
2023/08/08 11:51:34;;;;;;;4.30;1.33;;;25.10;94.10;;;;;;4836293;29;20243;-94
2023/08/08 11:54:02;;;;;;;1.67;1.57;;;25.00;95.40;;;;;;4831835;29;20770;-94
2023/08/08 11:56:28;;;;;;;2.43;1.90;;;25.00;96.60;;;;;;4833800;29;20535;-94
2023/08/08 11:58:55;;;;;;;4.17;2.37;;;25.10;96.30;;;;;;4833159;29;20416;-94
2023/08/08 12:01:28;;;;;;;2.20;1.80;;;25.10;96.80;;;;;;4834831;29;20480;-94
2023/08/08 12:03:55;;;;;;;3.37;1.73;;;25.20;97.40;;;;;;4832809;29;20523;-94
2023/08/08 12:06:20;;;;;;;3.80;2.03;;;25.20;96.90;;;;;;4833532;29;20491;-93
2023/08/08 12:08:50;;;;;;;6.97;2.23;;;25.20;95.60;;;;;;4832711;29;20488;-94
2023/08/08 12:11:16;;;;;;;2.23;2.03;;;25.20;94.80;;;;;;4828939;29;20465;-95
2023/08/08 12:13:43;;;;;;;3.60;2.80;;;25.20;95.70;;;;;;4831297;29;20431;-94
2023/08/08 12:16:14;;;;;;;3.23;2.20;;;25.20;95.20;;;;;;4832246;29;21097;-95
2023/08/08 12:18:40;;;;;;;5.33;2.83;;;25.30;94.70;;;;;;4831183;29;20572;-95
2023/08/08 12:21:08;;;;;;;3.73;2.53;;;25.20;94.30;;;;;;4823512;29;20453;-94
2023/08/08 12:23:34;;;;;;;4.73;2.53;;;25.10;93.90;;;;;;4820112;29;20425;-94
2023/08/08 12:26:02;;;;;;;4.23;2.00;;;25.10;94.80;;;;;;4833754;29;20484;-95
2023/08/08 12:28:29;;;;;;;3.30;2.00;;;25.10;96.10;;;;;;4834642;29;20468;-95
2023/08/08 12:30:54;;;;;;;2.83;2.27;;;25.00;97.00;;;;;;4854549;29;20476;-94
2023/08/08 12:33:20;;;;;;;2.97;2.37;;;25.00;98.70;;;;;;4835878;29;20558;-94
2023/08/08 12:35:47;;;;;;;3.13;2.47;;;24.90;99.30;;;;;;4834336;29;20479;-94
2023/08/08 12:38:14;;;;;;;2.63;2.23;;;24.90;99.40;;;;;;4849601;29;20620;-95
2023/08/08 12:40:39;;;;;;;2.73;2.53;;;24.90;99.70;;;;;;4840200;29;20539;-94
2023/08/08 12:43:05;;;;;;;3.10;2.53;;;25.00;98.20;;;;;;4844085;29;20461;-95
2023/08/08 12:45:31;;;;;;;5.73;2.70;;;25.10;99.80;;;;;;4837653;29;20496;-94
2023/08/08 12:47:57;;;;;;;4.93;2.60;;;25.20;97.40;;;;;;4837699;29;20181;-95
2023/08/08 12:50:24;;;;;;;3.50;2.40;;;25.30;95.90;;;;;;4834532;29;20686;-94
2023/08/08 12:52:49;;;;;;;2.90;2.20;;;25.30;96.60;;;;;;4835095;29;20165;-95
2023/08/08 12:55:17;;;;;;;3.73;2.67;;;25.20;98.50;;;;;;4834250;29;20463;-94
2023/08/08 12:57:44;;;;;;;3.80;2.80;;;25.20;96.30;;;;;;4836702;29;20181;-93
2023/08/08 13:00:10;;;;;;;3.03;2.77;;;25.20;96.30;;;;;;4834537;29;20479;-94
2023/08/08 13:02:37;;;;;;;3.40;2.80;;;25.20;95.80;;;;;;4830890;29;20724;-96
2023/08/08 13:05:04;;;;;;;3.30;3.00;;;25.30;95.50;;;;;;4814251;29;20838;-95
2023/08/08 13:07:29;;;;;;;3.90;2.60;;;25.40;94.20;;;;;;4821718;29;20480;-94
2023/08/08 13:09:55;;;;;;;4.43;2.40;;;25.40;94.00;;;;;;4832677;29;20464;-94
2023/08/08 13:12:21;;;;;;;2.87;2.30;;;25.40;93.70;;;;;;4833077;29;20174;-94
2023/08/08 13:14:47;;;;;;;3.50;2.60;;;25.30;94.80;;;;;;4831322;29;20532;-94
2023/08/08 13:17:13;;;;;;;6.17;2.80;;;25.30;93.60;;;;;;4836182;29;20668;-94
2023/08/08 13:19:39;;;;;;;3.13;1.93;;;25.30;94.60;;;;;;4836176;29;20543;-95
2023/08/08 13:22:05;;;;;;;2.80;2.50;;;25.30;96.20;;;;;;4824619;29;20199;-95
2023/08/08 13:24:31;;;;;;;3.30;2.43;;;25.10;98.70;;;;;;4833951;29;20444;-94
2023/08/08 13:26:56;;;;;;;4.20;2.67;;;25.20;93.90;;;;;;4821784;29;20182;-94
2023/08/08 13:29:22;;;;;;;2.73;2.40;;;25.30;92.20;;;;;;4830314;29;20213;-94
2023/08/08 13:31:48;;;;;;;2.10;1.80;;;25.30;93.80;;;;;;4824531;29;20188;-94
2023/08/08 13:34:14;;;;;;;2.20;2.00;;;25.30;95.00;;;;;;4823055;29;20192;-94
2023/08/08 13:36:40;;;;;;;2.40;2.20;;;25.40;94.80;;;;;;4830463;29;20185;-95
2023/08/08 13:39:06;;;;;;;2.37;2.17;;;25.30;98.30;;;;;;4819382;29;20413;-95
2023/08/08 13:41:32;;;;;;;2.20;2.00;;;25.20;98.10;;;;;;4823163;29;21008;-94
2023/08/08 13:43:58;;;;;;;2.00;1.80;;;25.20;98.50;;;;;;4831134;29;20193;-94
2023/08/08 13:46:23;;;;;;;2.40;2.00;;;25.20;99.10;;;;;;4824289;29;20473;-94
2023/08/08 13:48:49;;;;;;;2.43;2.10;;;25.30;93.60;;;;;;4806994;29;20489;-96
2023/08/08 13:51:15;;;;;;;1.83;1.60;;;25.50;91.70;;;;;;4832944;29;20725;-94
2023/08/08 13:53:41;;;;;;;2.03;1.70;;;25.60;90.90;;;;;;4833502;29;20954;-95
2023/08/08 13:56:08;;;;;;;2.83;2.03;;;25.60;90.80;;;;;;4834267;29;20209;-94
2023/08/08 13:58:34;;;;;;;1.63;1.47;;;25.70;91.00;;;;;;4831523;29;20193;-94
2023/08/08 14:01:00;;;;;;;1.93;1.73;;;25.70;90.80;;;;;;4831271;29;20464;-94
2023/08/08 14:03:25;;;;;;;2.93;1.80;;;25.70;91.40;;;;;;4832001;29;20189;-94
2023/08/08 14:05:57;;;;;;;3.23;1.60;;;25.60;92.50;;;;;;4818552;29;20230;-94
2023/08/08 14:08:23;;;;;;;2.50;1.57;;;25.70;91.50;;;;;;4836488;29;20177;-95
2023/08/08 14:10:49;;;;;;;2.90;1.70;;;25.80;91.00;;;;;;4834908;29;20532;-94
2023/08/08 14:13:15;;;;;;;2.17;1.97;;;25.80;90.50;;;;;;4837439;29;20191;-94
2023/08/08 14:15:41;;;;;;;2.63;2.13;;;25.90;90.30;;;;;;4837154;29;20244;-94
2023/08/08 14:18:07;;;;;;;2.20;2.00;;;25.90;90.40;;;;;;4836190;29;20429;-95
2023/08/08 14:20:33;;;;;;;1.50;1.40;;;25.90;90.00;;;;;;4838765;29;20475;-93
2023/08/08 14:22:59;;;;;;;4.80;1.77;;;25.80;92.80;;;;;;4836964;29;20428;-94
2023/08/08 14:25:25;;;;;;;1.77;1.67;;;25.70;90.90;;;;;;4839212;29;20583;-95
2023/08/08 14:27:50;;;;;;;2.43;1.70;;;25.80;90.50;;;;;;4845991;29;20412;-94
2023/08/08 14:30:16;;;;;;;2.10;1.67;;;25.80;90.10;;;;;;4833558;29;20213;-94
2023/08/08 14:32:42;;;;;;;1.80;1.70;;;25.90;91.70;;;;;;4835822;29;20170;-95
2023/08/08 14:35:08;;;;;;;2.30;1.63;;;25.90;90.90;;;;;;4834488;29;20695;-94
2023/08/08 14:37:35;;;;;;;1.93;1.80;;;26.00;91.60;;;;;;4832188;29;20215;-95
2023/08/08 14:40:02;;;;;;;3.00;1.93;;;26.00;91.80;;;;;;4833598;29;20487;-95
2023/08/08 14:42:29;;;;;;;2.00;1.80;;;26.00;91.50;;;;;;4833515;29;20694;-94
2023/08/08 14:44:55;;;;;;;2.20;1.70;;;26.00;92.70;;;;;;4834360;29;20586;-95
2023/08/08 14:47:21;;;;;;;2.53;1.30;;;26.00;93.00;;;;;;4836415;29;20564;-95
2023/08/08 14:49:47;;;;;;;1.93;1.80;;;26.00;92.50;;;;;;4831449;29;20208;-95
2023/08/08 14:52:13;;;;;;;2.20;2.00;;;26.10;90.60;;;;;;4834709;29;20436;-95
2023/08/08 14:54:39;;;;;;;2.17;1.73;;;26.10;90.10;;;;;;4834582;29;20560;-96
2023/08/08 14:57:05;;;;;;;2.53;1.87;;;26.10;88.90;;;;;;4833715;29;20973;-94
2023/08/08 14:59:31;;;;;;;2.50;1.83;;;26.10;89.10;;;;;;4833313;29;20920;-95
2023/08/08 15:01:57;;;;;;;1.50;1.40;;;26.20;87.80;;;;;;4834141;29;20429;-94
2023/08/08 15:04:22;;;;;;;2.07;1.87;;;26.20;86.40;;;;;;4832960;29;20189;-94
2023/08/08 15:06:48;;;;;;;1.73;1.63;;;26.10;87.50;;;;;;4832334;29;20170;-95
2023/08/08 15:09:14;;;;;;;2.37;2.17;;;26.00;91.00;;;;;;4830207;29;20193;-94
2023/08/08 15:11:39;;;;;;;3.20;2.33;;;26.00;92.10;;;;;;4830000;29;20181;-94
2023/08/08 15:14:05;;;;;;;1.47;1.37;;;25.90;93.50;;;;;;4829914;29;20454;-95
2023/08/08 15:16:31;;;;;;;3.83;1.40;;;25.90;93.20;;;;;;4830932;29;20251;-95
2023/08/08 15:18:57;;;;;;;1.70;1.60;;;26.00;92.30;;;;;;4840237;29;20268;-95
2023/08/08 15:21:22;;;;;;;4.27;2.53;;;26.10;90.80;;;;;;4834849;29;20707;-95
2023/08/08 15:23:48;;;;;;;7.10;2.00;;;26.10;90.60;;;;;;4823585;29;20411;-94
2023/08/08 15:26:20;;;;;;;2.10;1.80;;;26.10;90.30;;;;;;4822162;29;20281;-94
2023/08/08 15:28:46;;;;;;;2.43;1.83;;;26.20;90.90;;;;;;4836111;29;20189;-95
2023/08/08 15:31:12;;;;;;;1.73;1.60;;;26.20;90.60;;;;;;4839627;29;20544;-95
2023/08/08 15:33:38;;;;;;;5.23;1.83;;;26.20;91.30;;;;;;4836280;29;20559;-94
2023/08/08 15:36:05;;;;;;;2.20;2.00;;;26.10;91.70;;;;;;4834332;29;20825;-93
2023/08/08 15:38:31;;;;;;;2.17;1.50;;;26.10;92.40;;;;;;4834987;29;20790;-94
2023/08/08 15:40:57;;;;;;;1.93;1.67;;;26.10;92.30;;;;;;4835940;29;20459;-94
2023/08/08 15:43:24;;;;;;;3.50;1.80;;;26.10;92.40;;;;;;4834215;29;20459;-95
2023/08/08 15:45:51;;;;;;;2.30;2.10;;;26.10;92.60;;;;;;4831646;29;20890;-95
2023/08/08 15:48:17;;;;;;;1.80;1.70;;;26.10;91.60;;;;;;4832166;29;20454;-94
2023/08/08 15:50:43;;;;;;;2.70;1.80;;;26.10;91.40;;;;;;4834468;29;20531;-94
2023/08/08 15:53:10;;;;;;;2.00;1.80;;;26.10;91.70;;;;;;4833945;29;20655;-94
2023/08/08 15:55:36;;;;;;;2.33;1.67;;;26.10;90.90;;;;;;4834088;29;20753;-95
2023/08/08 15:58:03;;;;;;;2.93;1.73;;;26.10;91.60;;;;;;4833922;29;20477;-96
2023/08/08 16:00:29;;;;;;;1.87;1.70;;;26.10;92.10;;;;;;4833387;29;20959;-96
2023/08/08 16:02:54;;;;;;;2.77;1.53;;;26.10;92.70;;;;;;4833824;29;20421;-95
2023/08/08 16:05:21;;;;;;;3.60;2.30;;;26.10;93.00;;;;;;4832893;29;20492;-96
2023/08/08 16:07:46;;;;;;;2.80;1.93;;;26.10;93.10;;;;;;4842022;29;20254;-95
2023/08/08 16:10:12;;;;;;;2.83;2.37;;;26.10;93.50;;;;;;4834630;29;21016;-94
2023/08/08 16:12:39;;;;;;;1.60;1.50;;;26.10;93.60;;;;;;4836779;29;20220;-94
2023/08/08 16:15:05;;;;;;;3.50;1.90;;;26.00;93.80;;;;;;4839247;29;20718;-95
2023/08/08 16:17:31;;;;;;;3.57;2.37;;;26.00;94.10;;;;;;4842247;29;20532;-94
2023/08/08 16:20:02;;;;;;;2.83;1.73;;;26.00;94.50;;;;;;4841321;29;20555;-96
2023/08/08 16:22:28;;;;;;;2.57;1.77;;;26.00;94.60;;;;;;4840917;29;20188;-96
2023/08/08 16:24:53;;;;;;;1.70;1.60;;;26.00;94.60;;;;;;4839105;29;20540;-94
2023/08/08 16:27:20;;;;;;;2.87;2.00;;;25.90;94.80;;;;;;4841746;29;20655;-96
2023/08/08 16:29:46;;;;;;;4.27;2.17;;;25.90;94.80;;;;;;4837404;29;20243;-95
2023/08/08 16:32:12;;;;;;;3.13;2.03;;;25.90;94.90;;;;;;4840064;29;20760;-96
2023/08/08 16:34:38;;;;;;;3.13;2.10;;;25.90;94.90;;;;;;4847246;29;20329;-95
2023/08/08 16:37:04;;;;;;;2.70;2.00;;;25.90;95.10;;;;;;4854095;29;20673;-95
2023/08/08 16:39:29;;;;;;;2.60;1.97;;;25.90;95.10;;;;;;4840128;29;20444;-95
2023/08/08 16:41:58;;;;;;;2.33;2.10;;;25.90;94.80;;;;;;4841051;29;20188;-95
2023/08/08 16:44:24;;;;;;;2.33;1.90;;;25.90;95.30;;;;;;4855549;29;20192;-96
2023/08/08 16:46:50;;;;;;;2.00;1.90;;;25.90;95.40;;;;;;4845404;29;20454;-95
2023/08/08 16:49:16;;;;;;;4.13;2.60;;;25.90;95.30;;;;;;4842480;29;20845;-95
2023/08/08 16:51:43;;;;;;;4.73;2.00;;;25.90;95.50;;;;;;4838188;29;20436;-93
2023/08/08 16:54:09;;;;;;;3.77;1.83;;;25.80;95.50;;;;;;4837331;29;20246;-94
2023/08/08 16:56:35;;;;;;;1.60;1.50;;;25.80;95.60;;;;;;4849881;29;20736;-95
2023/08/08 16:59:01;;;;;;;4.33;2.10;;;25.90;95.70;;;;;;4848978;29;20234;-95
2023/08/08 17:01:27;;;;;;;4.30;2.07;;;25.80;95.70;;;;;;4839410;29;20504;-93
2023/08/08 17:03:53;;;;;;;2.80;1.83;;;25.80;95.70;;;;;;4835993;29;20516;-95
2023/08/08 17:06:19;;;;;;;3.87;2.13;;;25.80;95.80;;;;;;4836213;29;20492;-95
2023/08/08 17:08:45;;;;;;;2.40;2.20;;;25.80;94.20;;;;;;4837552;29;20895;-94
2023/08/08 17:11:12;;;;;;;1.80;1.70;;;25.80;92.60;;;;;;4839675;29;20541;-95
2023/08/08 17:13:38;;;;;;;10.43;2.20;;;25.80;92.10;;;;;;4840348;29;20280;-94
2023/08/08 17:16:04;;;;;;;4.03;2.20;;;25.80;92.00;;;;;;4838979;29;21070;-95
2023/08/08 17:18:30;;;;;;;2.87;1.60;;;25.80;91.90;;;;;;4838697;29;20520;-94
2023/08/08 17:20:57;;;;;;;2.40;2.00;;;25.80;91.80;;;;;;4837793;29;20491;-94
2023/08/08 17:23:23;;;;;;;1.93;1.73;;;25.70;91.60;;;;;;4838013;29;20522;-94
2023/08/08 17:25:50;;;;;;;3.20;1.80;;;25.70;91.70;;;;;;4837545;29;21118;-95
2023/08/08 17:28:16;;;;;;;2.50;2.17;;;25.60;91.80;;;;;;4838556;29;20416;-94
2023/08/08 17:30:42;;;;;;;3.37;2.07;;;25.60;92.30;;;;;;4838821;29;20817;-94
2023/08/08 17:33:07;;;;;;;4.00;1.90;;;25.60;93.00;;;;;;4838840;29;20201;-94
2023/08/08 17:35:34;;;;;;;6.20;2.03;;;25.50;92.90;;;;;;4839266;29;20740;-95
2023/08/08 17:38:01;;;;;;;2.27;1.60;;;25.40;93.20;;;;;;4839747;29;20177;-93
2023/08/08 17:40:27;;;;;;;5.23;2.63;;;25.30;93.20;;;;;;4845929;29;20463;-92
2023/08/08 17:42:52;;;;;;;1.70;1.60;;;25.30;93.30;;;;;;4842383;29;20412;-94
2023/08/08 17:45:18;;;;;;;2.40;2.10;;;25.20;93.50;;;;;;4836444;29;20257;-94
2023/08/08 17:47:44;;;;;;;3.93;2.47;;;25.10;93.60;;;;;;4837295;29;20181;-94
2023/08/08 17:50:10;;;;;;;2.17;1.97;;;25.00;93.90;;;;;;4838764;29;20451;-95
2023/08/08 17:52:35;;;;;;;2.37;2.17;;;24.90;94.60;;;;;;4838534;29;20194;-94
2023/08/08 17:55:01;;;;;;;1.93;1.77;;;24.80;94.60;;;;;;4840215;29;20208;-94
2023/08/08 17:57:27;;;;;;;2.60;2.07;;;24.70;94.50;;;;;;4839348;29;20184;-96
2023/08/08 17:59:53;;;;;;;2.27;2.03;;;24.60;95.20;;;;;;4840078;29;20235;-94
2023/08/08 18:02:19;;;;;;;2.50;1.90;;;24.50;94.60;;;;;;4839425;29;20197;-94
2023/08/08 18:04:45;;;;;;;2.40;2.20;;;24.40;94.80;;;;;;4838582;29;21148;-95
2023/08/08 18:07:10;;;;;;;2.40;2.13;;;24.30;95.10;;;;;;4838946;29;20178;-94
2023/08/08 18:09:37;;;;;;;5.47;2.60;;;24.30;95.80;;;;;;4839513;29;20283;-96
2023/08/08 18:12:03;;;;;;;2.90;2.17;;;24.10;95.60;;;;;;4839151;29;20457;-94
2023/08/08 18:14:29;;;;;;;2.40;2.20;;;24.10;95.90;;;;;;4841328;29;20549;-94
2023/08/08 18:16:55;;;;;;;4.17;1.90;;;24.00;96.30;;;;;;4840109;29;20551;-94
2023/08/08 18:19:22;;;;;;;2.20;2.00;;;23.90;96.40;;;;;;4842136;29;20810;-95
2023/08/08 18:21:48;;;;;;;3.23;2.50;;;23.80;96.50;;;;;;4846754;29;20223;-94
2023/08/08 18:24:14;;;;;;;4.33;2.20;;;23.70;97.20;;;;;;4848878;29;20433;-95
2023/08/08 18:26:40;;;;;;;2.40;2.20;;;23.70;97.30;;;;;;4849810;29;20470;-93
2023/08/08 18:29:06;;;;;;;3.10;2.00;;;23.60;97.50;;;;;;4839751;29;20597;-94
2023/08/08 18:31:32;;;;;;;2.53;2.30;;;23.50;97.60;;;;;;4841318;29;20206;-94
2023/08/08 18:33:59;;;;;;;3.20;2.67;;;23.50;97.80;;;;;;4838805;29;20192;-95
2023/08/08 18:36:25;;;;;;;4.33;3.20;;;23.40;98.30;;;;;;4837851;29;20506;-94
2023/08/08 18:38:52;;;;;;;6.17;4.63;;;23.40;98.80;;;;;;4838369;29;20436;-94
2023/08/08 18:41:17;;;;;;;5.70;4.70;;;23.30;98.30;;;;;;4839974;29;20452;-94
2023/08/08 18:43:43;;;;;;;7.53;4.67;;;23.20;98.10;;;;;;4838414;29;20448;-93
2023/08/08 18:46:09;;;;;;;5.00;4.30;;;23.10;99.30;;;;;;4838109;29;20489;-94
2023/08/08 18:48:34;;;;;;;6.70;4.80;;;23.10;99.50;;;;;;4839587;29;20183;-94
2023/08/08 18:51:16;;;;;;;6.70;5.93;;;23.00;99.60;;;;;;4837550;29;20224;-94
2023/08/08 18:53:43;;;;;;;6.80;5.60;;;23.00;99.10;;;;;;4838210;29;20216;-94
2023/08/08 18:56:08;;;;;;;5.73;5.13;;;22.90;99.20;;;;;;4837035;29;20874;-95
2023/08/08 18:58:34;;;;;;;6.10;4.60;;;22.80;99.30;;;;;;4837060;29;20451;-94
2023/08/08 19:01:00;;;;;;;6.37;5.40;;;22.80;99.90;;;;;;4837495;29;20214;-94
2023/08/08 19:03:26;;;;;;;6.90;4.57;;;22.70;99.90;;;;;;4838276;29;20196;-94
2023/08/08 19:05:51;;;;;;;7.37;5.17;;;22.70;99.90;;;;;;4837145;29;20692;-95
2023/08/08 19:08:17;;;;;;;6.40;4.67;;;22.60;99.90;;;;;;4836662;29;20242;-93
2023/08/08 19:10:44;;;;;;;5.43;4.80;;;22.50;99.90;;;;;;4836331;29;20214;-95
2023/08/08 19:13:10;;;;;;;8.73;4.70;;;22.50;99.90;;;;;;4836593;29;20205;-94
2023/08/08 19:15:36;;;;;;;5.27;4.37;;;22.40;99.90;;;;;;4838246;29;20527;-94
2023/08/08 19:18:02;;;;;;;5.60;5.10;;;22.30;99.90;;;;;;4845891;29;20203;-94
2023/08/08 19:20:27;;;;;;;4.77;4.23;;;22.30;99.90;;;;;;4848259;29;20529;-95
2023/08/08 19:22:53;;;;;;;7.57;4.77;;;22.20;99.90;;;;;;4842073;29;20210;-93
2023/08/08 19:25:19;;;;;;;6.13;5.50;;;22.10;99.90;;;;;;4839819;29;20241;-94
2023/08/08 19:27:45;;;;;;;5.30;4.60;;;22.10;99.90;;;;;;4839672;29;20511;-93
2023/08/08 19:30:12;;;;;;;9.03;5.50;;;22.10;99.90;;;;;;4837812;29;20517;-94
2023/08/08 19:32:39;;;;;;;7.90;4.37;;;22.00;99.90;;;;;;4840165;29;20463;-95
2023/08/08 19:35:05;;;;;;;8.97;4.80;;;22.00;99.90;;;;;;4838272;29;20456;-95
2023/08/08 19:37:31;;;;;;;5.60;4.23;;;21.90;99.90;;;;;;4837362;29;20277;-94
2023/08/08 19:39:57;;;;;;;5.60;4.40;;;21.90;99.90;;;;;;4837081;29;20463;-94
2023/08/08 19:42:22;;;;;;;7.10;5.40;;;21.80;99.90;;;;;;4837211;29;20193;-93
2023/08/08 19:44:48;;;;;;;5.50;4.73;;;21.80;99.90;;;;;;4834587;29;20221;-94
2023/08/08 19:47:14;;;;;;;6.93;5.13;;;21.70;99.90;;;;;;4837190;29;20244;-94
2023/08/08 19:49:40;;;;;;;4.37;3.97;;;21.70;99.90;;;;;;4836186;29;20293;-94
2023/08/08 19:52:06;;;;;;;9.60;4.97;;;21.60;99.90;;;;;;4834541;29;20264;-95
2023/08/08 19:54:32;;;;;;;5.20;4.70;;;21.50;99.90;;;;;;4835029;29;20483;-94
2023/08/08 19:56:57;;;;;;;8.63;4.40;;;21.50;99.90;;;;;;4834019;29;20475;-93
2023/08/08 19:59:23;;;;;;;5.03;4.43;;;21.40;99.90;;;;;;4833618;29;20631;-94
2023/08/08 20:01:49;;;;;;;7.60;4.80;;;21.30;99.90;;;;;;4835650;29;20205;-95
2023/08/08 20:04:16;;;;;;;6.30;4.90;;;21.30;99.90;;;;;;4834360;29;20185;-94
2023/08/08 20:06:42;;;;;;;11.80;8.43;;;21.20;99.90;;;;;;4836894;29;20576;-95
2023/08/08 20:09:08;;;;;;;8.97;7.20;;;21.20;99.90;;;;;;4832356;29;20463;-93
2023/08/08 20:11:36;;;;;;;7.70;6.20;;;21.20;99.90;;;;;;4832485;29;20464;-94
2023/08/08 20:14:03;;;;;;;7.50;5.87;;;21.10;99.90;;;;;;4834802;29;20444;-95
2023/08/08 20:16:30;;;;;;;5.77;4.60;;;21.00;99.90;;;;;;4833947;29;20890;-94
2023/08/08 20:18:55;;;;;;;5.80;5.20;;;20.90;99.90;;;;;;4848354;29;20516;-94
2023/08/08 20:21:21;;;;;;;7.27;4.97;;;20.90;99.90;;;;;;4832883;29;20472;-95
2023/08/08 20:23:47;;;;;;;6.53;4.70;;;20.90;99.90;;;;;;4842801;29;20195;-94
2023/08/08 20:26:12;;;;;;;8.27;4.90;;;20.80;99.90;;;;;;4830676;29;20237;-94
2023/08/08 20:28:40;;;;;;;5.47;4.90;;;20.70;99.90;;;;;;4841874;29;20641;-93
2023/08/08 20:31:06;;;;;;;7.60;4.83;;;20.70;99.90;;;;;;4826504;29;20213;-94
2023/08/08 20:33:32;;;;;;;8.37;4.13;;;20.60;99.90;;;;;;4829238;29;20439;-93
2023/08/08 20:35:58;;;;;;;7.00;4.97;;;20.50;99.90;;;;;;4823087;29;20212;-94
2023/08/08 20:38:23;;;;;;;7.73;4.43;;;20.50;99.90;;;;;;4832753;29;20216;-93
2023/08/08 20:40:50;;;;;;;5.40;4.70;;;20.40;99.90;;;;;;4833679;29;20220;-95
2023/08/08 20:43:16;;;;;;;9.37;5.97;;;20.40;99.90;;;;;;4834739;29;20579;-95
2023/08/08 20:45:42;;;;;;;8.77;5.90;;;20.40;99.90;;;;;;4837097;29;20500;-95
2023/08/08 20:48:09;;;;;;;6.70;5.70;;;20.40;99.90;;;;;;4838001;29;20425;-94
2023/08/08 20:50:34;;;;;;;13.40;7.60;;;20.30;99.90;;;;;;4838471;29;20495;-93
2023/08/08 20:53:00;;;;;;;6.70;6.10;;;20.30;99.90;;;;;;4837439;29;20475;-95
2023/08/08 20:55:27;;;;;;;8.27;6.37;;;20.30;99.90;;;;;;4839405;29;20216;-94
2023/08/08 20:57:54;;;;;;;9.50;7.40;;;20.30;99.90;;;;;;4838609;29;20188;-95
2023/08/08 21:00:21;;;;;;;11.27;9.60;;;20.30;99.90;;;;;;4837988;29;20482;-94
2023/08/08 21:02:47;;;;;;;8.30;7.40;;;20.20;99.90;;;;;;4840248;29;20424;-93
2023/08/08 21:05:12;;;;;;;10.63;8.03;;;20.20;99.90;;;;;;4841285;29;20475;-93
2023/08/08 21:07:38;;;;;;;5.73;5.20;;;20.10;99.90;;;;;;4856120;29;20507;-92
2023/08/08 21:10:05;;;;;;;6.57;5.10;;;20.10;99.90;;;;;;4840619;29;20819;-94
2023/08/08 21:12:30;;;;;;;9.17;4.77;;;20.10;99.90;;;;;;4837787;29;20941;-94
2023/08/08 21:14:56;;;;;;;5.63;4.50;;;20.00;99.90;;;;;;4838622;29;20460;-94
2023/08/08 21:17:22;;;;;;;6.83;4.67;;;20.00;99.90;;;;;;4836299;29;20603;-94
2023/08/08 21:19:52;;;;;;;6.90;5.13;;;20.00;99.90;;;;;;4837376;29;20216;-94
2023/08/08 21:22:18;;;;;;;6.50;3.63;;;19.90;99.90;;;;;;4837945;29;20440;-95
2023/08/08 21:24:44;;;;;;;5.53;4.40;;;19.90;99.90;;;;;;4837868;29;20462;-94
2023/08/08 21:27:10;;;;;;;5.03;4.30;;;19.90;99.90;;;;;;4839680;29;20641;-93
2023/08/08 21:29:36;;;;;;;4.50;4.10;;;19.90;99.90;;;;;;4839281;29;20478;-94
2023/08/08 21:32:02;;;;;;;5.33;4.73;;;19.80;99.90;;;;;;4839652;29;20281;-92
2023/08/08 21:34:27;;;;;;;7.10;4.60;;;19.70;99.90;;;;;;4839519;29;20195;-93
2023/08/08 21:36:53;;;;;;;5.93;5.30;;;19.70;99.90;;;;;;4839381;29;20203;-94
2023/08/08 21:39:19;;;;;;;6.23;5.30;;;19.60;99.90;;;;;;4839591;29;20250;-94
2023/08/08 21:41:44;;;;;;;5.73;5.13;;;19.50;99.90;;;;;;4847308;29;20184;-94
2023/08/08 21:44:10;;;;;;;4.97;4.47;;;19.50;99.90;;;;;;4842509;29;20239;-95
2023/08/08 21:46:36;;;;;;;5.93;5.33;;;19.50;99.90;;;;;;4840717;29;20262;-94
2023/08/08 21:49:02;;;;;;;4.90;4.40;;;19.50;99.90;;;;;;4841528;29;20186;-93
2023/08/08 21:51:28;;;;;;;4.57;4.17;;;19.50;99.90;;;;;;4840249;29;20215;-94
2023/08/08 21:53:54;;;;;;;5.37;4.60;;;19.40;99.90;;;;;;4841309;29;20507;-93
2023/08/08 21:56:19;;;;;;;5.90;4.80;;;19.40;99.90;;;;;;4838035;29;20492;-95
2023/08/08 21:58:45;;;;;;;6.87;4.00;;;19.30;99.90;;;;;;4839389;29;20517;-92
2023/08/08 22:01:11;;;;;;;6.00;4.60;;;19.30;99.90;;;;;;4838635;29;20247;-94
2023/08/08 22:03:37;;;;;;;5.07;4.57;;;19.30;99.90;;;;;;4838751;29;20195;-94
2023/08/08 22:06:02;;;;;;;5.00;4.50;;;19.20;99.90;;;;;;4839799;29;20219;-94
2023/08/08 22:08:28;;;;;;;4.97;4.30;;;19.10;99.90;;;;;;4838679;29;20223;-93
2023/08/08 22:10:54;;;;;;;5.20;4.70;;;19.10;99.90;;;;;;4839283;29;20211;-95
2023/08/08 22:13:20;;;;;;;7.53;4.47;;;19.00;99.90;;;;;;4838869;29;20201;-94
2023/08/08 22:15:46;;;;;;;4.73;4.30;;;19.00;99.90;;;;;;4838365;29;20250;-94
2023/08/08 22:18:17;;;;;;;4.90;4.13;;;19.00;99.90;;;;;;4838843;29;20755;-93
2023/08/08 22:20:44;;;;;;;4.30;3.87;;;18.90;99.90;;;;;;4842989;29;20214;-93
2023/08/08 22:23:09;;;;;;;4.77;4.10;;;18.90;99.90;;;;;;4839143;29;20980;-94
2023/08/08 22:25:35;;;;;;;4.60;4.17;;;18.90;99.90;;;;;;4839788;29;20477;-94
2023/08/08 22:28:01;;;;;;;6.13;4.00;;;18.80;99.90;;;;;;4838476;29;20190;-93
2023/08/08 22:30:27;;;;;;;6.87;4.83;;;18.80;99.90;;;;;;4838512;29;20453;-94
2023/08/08 22:32:53;;;;;;;4.87;3.97;;;18.70;99.90;;;;;;4839994;29;20417;-93
2023/08/08 22:35:19;;;;;;;4.53;3.87;;;18.70;99.90;;;;;;4839472;29;20204;-94
2023/08/08 22:37:45;;;;;;;6.20;4.67;;;18.60;99.90;;;;;;4838470;29;20414;-93
2023/08/08 22:40:11;;;;;;;6.43;4.90;;;18.60;99.90;;;;;;4839083;29;20489;-94
2023/08/08 22:42:37;;;;;;;4.37;3.97;;;18.50;99.90;;;;;;4838543;29;20427;-94
2023/08/08 22:45:04;;;;;;;4.93;3.73;;;18.50;99.90;;;;;;4838006;29;20781;-94
2023/08/08 22:47:31;;;;;;;3.90;3.60;;;18.50;99.90;;;;;;4838650;29;20450;-94
2023/08/08 22:49:57;;;;;;;5.77;4.03;;;18.50;99.90;;;;;;4838463;29;20457;-94
2023/08/08 22:52:23;;;;;;;6.40;4.90;;;18.40;99.90;;;;;;4839228;29;20420;-95
2023/08/08 22:54:49;;;;;;;4.60;3.83;;;18.40;99.90;;;;;;4838712;29;20461;-94
2023/08/08 22:57:16;;;;;;;4.93;4.50;;;18.40;99.90;;;;;;4838369;29;20185;-93